Time;durP1;ratioP1;P1;durP2;ratioP2;P2;SDS_P1;SDS_P2;PMS_P1;PMS_P2;Temp;Humidity;BMP_temperature;BMP_pressure;BME280_temperature;BME280_humidity;BME280_pressure;Samples;Min_cycle;Max_cycle;Signal;HPM_P1;HPM_P2
2023/10/09 00:04:25;;;;;;;3.75;1.00;;;;;;;15.83;67.37;100896.50;10332690;28;20046;-57
2023/10/09 00:09:30;;;;;;;4.85;1.10;;;;;;;15.81;67.36;100890.44;10337907;28;20931;-57
2023/10/09 00:14:38;;;;;;;3.85;1.50;;;;;;;15.75;67.61;100895.81;10336266;28;20061;-57
2023/10/09 00:19:42;;;;;;;5.88;1.50;;;;;;;15.75;67.76;100887.69;10332739;28;20046;-58
2023/10/09 00:24:46;;;;;;;2.80;1.00;;;;;;;15.71;67.57;100875.53;10376115;28;20050;-58
2023/10/09 00:29:48;;;;;;;5.57;2.20;;;;;;;15.64;67.68;100868.19;10369350;28;20061;-57
2023/10/09 00:34:52;;;;;;;3.45;1.48;;;;;;;15.55;67.97;100854.97;10341046;28;20042;-58
2023/10/09 00:39:57;;;;;;;8.07;1.90;;;;;;;15.51;67.95;100840.16;10338379;28;20038;-59
2023/10/09 00:45:04;;;;;;;5.20;1.52;;;;;;;15.50;67.94;100835.75;10332310;28;20453;-58
2023/10/09 00:50:20;;;;;;;5.75;1.65;;;;;;;15.50;68.10;100820.34;10334527;28;20137;-57
2023/10/09 00:55:38;;;;;;;3.50;1.20;;;;;;;15.55;67.84;100825.16;10334257;28;20057;-58
2023/10/09 01:05:52;;;;;;;1.90;1.20;;;;;;;15.54;67.96;100818.91;10335027;28;20073;-57
2023/10/09 01:10:56;;;;;;;3.20;1.67;;;;;;;15.57;67.87;100815.78;10340707;28;20545;-58
2023/10/09 01:15:58;;;;;;;4.82;1.70;;;;;;;15.55;67.88;100809.75;10336439;28;20462;-58
2023/10/09 01:21:02;;;;;;;4.28;1.33;;;;;;;15.52;68.15;100812.88;10333660;28;20057;-58
2023/10/09 01:26:04;;;;;;;1.30;1.08;;;;;;;15.54;68.23;100818.91;10332967;28;20065;-58
2023/10/09 01:31:06;;;;;;;5.85;1.75;;;;;;;15.50;68.04;100806.81;10336779;28;20057;-57
2023/10/09 01:36:09;;;;;;;3.50;1.15;;;;;;;15.46;68.27;100802.78;10338089;28;20059;-58
2023/10/09 01:41:15;;;;;;;3.78;1.55;;;;;;;15.44;68.20;100810.28;10336505;28;20054;-58
2023/10/09 01:46:19;;;;;;;2.78;1.25;;;;;;;15.32;68.53;100809.13;10340648;28;20506;-58
2023/10/09 01:51:21;;;;;;;2.63;1.35;;;;;;;15.29;68.61;100806.84;10336504;28;20056;-58
2023/10/09 01:56:22;;;;;;;4.18;1.20;;;;;;;15.31;68.24;100808.31;10337420;28;20062;-59
2023/10/09 02:01:24;;;;;;;3.72;1.20;;;;;;;15.29;68.40;100807.66;10338385;28;20035;-57
2023/10/09 02:06:29;;;;;;;16.73;1.58;;;;;;;15.20;68.61;100800.72;10339834;28;20377;-57
2023/10/09 02:11:45;;;;;;;3.60;1.30;;;;;;;15.16;68.68;100800.25;10342457;28;20057;-57
2023/10/09 02:17:02;;;;;;;3.58;1.50;;;;;;;15.11;68.83;100804.59;10339657;28;20053;-58
2023/10/09 02:22:13;;;;;;;;;;;;;;;15.08;68.61;100793.09;10342052;28;20121;-56
2023/10/09 02:27:20;;;;;;;6.93;1.75;;;;;;;15.11;68.65;100800.03;10335964;28;19921;-56
2023/10/09 02:32:25;;;;;;;3.13;1.23;;;;;;;15.10;68.55;100809.16;10336183;28;20042;-56
2023/10/09 02:37:27;;;;;;;7.22;2.17;;;;;;;15.08;68.86;100776.03;10338466;28;20058;-55
2023/10/09 02:42:29;;;;;;;3.40;1.40;;;;;;;14.96;69.29;100785.72;10340773;28;20046;-56
2023/10/09 02:47:37;;;;;;;4.20;2.60;;;;;;;14.98;69.21;100779.06;10335964;28;20038;-56
2023/10/09 02:52:41;;;;;;;2.88;1.33;;;;;;;15.01;69.14;100780.56;10338252;28;20104;-57
2023/10/09 02:57:45;;;;;;;5.80;1.75;;;;;;;14.83;69.32;100772.88;10341021;28;20445;-55
2023/10/09 03:02:49;;;;;;;7.07;1.77;;;;;;;14.65;69.89;100770.63;10342729;28;20070;-55
2023/10/09 03:07:53;;;;;;;4.40;1.52;;;;;;;14.63;70.07;100757.31;10343470;28;20053;-55
2023/10/09 03:12:54;;;;;;;4.30;1.35;;;;;;;14.71;69.83;100755.47;10335657;28;20118;-55
2023/10/09 03:17:55;;;;;;;7.88;2.05;;;;;;;14.61;69.92;100737.72;10336372;28;20060;-56
2023/10/09 03:22:57;;;;;;;7.22;2.20;;;;;;;14.65;70.00;100733.59;10337456;28;20053;-58
2023/10/09 03:27:59;;;;;;;8.77;2.67;;;;;;;14.63;70.06;100726.69;10341266;28;20049;-58
2023/10/09 03:33:02;;;;;;;11.15;1.95;;;;;;;14.46;70.45;100728.78;10336235;28;20688;-57
2023/10/09 03:38:12;;;;;;;7.70;2.20;;;;;;;14.40;70.93;100716.03;10338566;28;20038;-57
2023/10/09 03:43:14;;;;;;;5.97;2.33;;;;;;;14.49;70.66;100722.97;10336923;28;20042;-58
2023/10/09 03:48:21;;;;;;;12.80;3.28;;;;;;;14.53;70.73;100723.44;10339152;28;20111;-57
2023/10/09 03:53:23;;;;;;;8.32;2.47;;;;;;;14.52;70.68;100736.13;10333385;28;20124;-58
2023/10/09 03:58:28;;;;;;;4.63;1.58;;;;;;;14.56;70.57;100745.56;10341918;28;20523;-57
2023/10/09 04:03:29;;;;;;;7.50;2.15;;;;;;;14.68;70.38;100752.13;10331710;28;20408;-58
2023/10/09 04:08:33;;;;;;;5.57;2.20;;;;;;;14.74;70.24;100733.47;10336421;28;20082;-58
2023/10/09 04:13:34;;;;;;;5.25;2.58;;;;;;;14.70;70.45;100749.25;10337879;28;20608;-58
2023/10/09 04:18:38;;;;;;;8.73;2.17;;;;;;;14.73;70.52;100748.00;10333799;28;20046;-57
2023/10/09 04:29:02;;;;;;;5.78;2.20;;;;;;;14.79;70.34;100745.38;10338481;28;20508;-57
2023/10/09 04:39:46;;;;;;;7.00;2.28;;;;;;;14.78;70.49;100735.56;10315486;28;20419;-56
2023/10/09 04:50:11;;;;;;;7.60;2.10;;;;;;;14.59;71.26;100741.63;10334997;28;20524;-56
2023/10/09 04:55:19;;;;;;;4.28;1.63;;;;;;;14.75;70.66;100738.69;10329132;28;20325;-55
2023/10/09 05:15:59;;;;;;;9.15;3.00;;;;;;;14.86;71.35;100721.91;10331507;28;20046;-56
2023/10/09 05:21:28;;;;;;;13.27;4.45;;;;;;;15.01;71.62;100723.72;10330069;28;20552;-53
2023/10/09 05:26:50;;;;;;;12.00;5.13;;;;;;;15.22;71.39;100730.94;10331320;28;20088;-55
2023/10/09 05:32:15;;;;;;;12.30;4.47;;;;;;;15.32;71.94;100734.13;10334280;28;20042;-55
2023/10/09 05:37:17;;;;;;;15.32;5.43;;;;;;;15.47;72.14;100736.75;10334412;28;20045;-55
2023/10/09 05:42:19;;;;;;;12.77;4.38;;;;;;;15.63;72.03;100730.16;10334223;28;20046;-58
2023/10/09 05:47:29;;;;;;;11.20;4.22;;;;;;;15.79;72.04;100723.59;10333149;28;20062;-58
2023/10/09 06:08:24;;;;;;;10.73;4.85;;;;;;;16.32;71.00;100725.69;10332168;28;20436;-57
2023/10/09 06:13:47;;;;;;;12.93;4.68;;;;;;;16.37;70.77;100751.16;10328017;28;20045;-58
2023/10/09 06:19:07;;;;;;;10.77;4.85;;;;;;;16.33;71.29;100738.19;10325623;28;20042;-58
2023/10/09 06:24:14;;;;;;;14.40;4.65;;;;;;;16.45;70.60;100742.84;10326049;28;20057;-58
2023/10/09 06:29:17;;;;;;;9.45;4.50;;;;;;;16.52;70.42;100725.72;10338688;28;20043;-58
2023/10/09 06:34:18;;;;;;;9.70;4.28;;;;;;;16.50;70.56;100723.22;10337121;28;20066;-59
2023/10/09 06:44:52;;;;;;;13.60;4.18;;;;;;;16.62;70.41;100721.56;10341162;28;20077;-59
2023/10/09 06:55:19;;;;;;;11.57;3.75;;;;;;;16.66;70.53;100728.25;10338824;28;20054;-58
2023/10/09 07:16:28;;;;;;;7.15;2.85;;;;;;;17.22;68.99;100767.81;10340501;28;20053;-57
2023/10/09 07:21:31;;;;;;;13.52;4.70;;;;;;;17.25;69.00;100769.25;10335686;28;20116;-58
2023/10/09 07:26:47;;;;;;;9.90;4.05;;;;;;;17.32;68.52;100775.53;10334571;28;20164;-57
2023/10/09 07:31:57;;;;;;;16.92;3.38;;;;;;;17.38;68.61;100761.09;10339013;28;20042;-59
2023/10/09 07:37:03;;;;;;;7.25;3.53;;;;;;;17.43;68.14;100744.16;10339176;28;20141;-60
2023/10/09 07:42:33;;;;;;;10.25;3.83;;;;;;;17.41;68.21;100763.38;10337443;28;20042;-60
2023/10/09 07:48:25;;;;;;;18.20;4.43;;;;;;;17.56;67.80;100790.34;10337248;28;20053;-58
2023/10/09 07:53:14;;;;;;;14.13;3.45;;;;;;;17.58;67.64;100777.38;10335551;28;20382;-60
2023/10/09 07:58:16;;;;;;;10.80;3.20;;;;;;;17.68;67.42;100778.84;10332499;28;20080;-59
2023/10/09 08:03:32;;;;;;;9.82;3.53;;;;;;;17.83;66.91;100779.41;10340878;28;20416;-60
2023/10/09 08:14:00;;;;;;;11.82;3.13;;;;;;;18.34;66.05;100794.13;10341203;28;20405;-60
2023/10/09 08:19:32;;;;;;;10.98;2.75;;;;;;;18.48;65.69;100803.06;10336323;28;20474;-60
2023/10/09 08:24:49;;;;;;;5.05;2.45;;;;;;;18.51;65.30;100803.47;10333563;28;20062;-60
2023/10/09 08:30:11;;;;;;;12.88;3.47;;;;;;;18.50;65.22;100815.41;10335081;28;20586;-60
2023/10/09 08:35:31;;;;;;;9.43;2.95;;;;;;;18.58;65.05;100823.34;10334538;28;20049;-61
2023/10/09 08:40:37;;;;;;;12.43;2.78;;;;;;;18.66;64.83;100827.69;10331276;28;20902;-61
2023/10/09 08:45:40;;;;;;;8.33;3.10;;;;;;;18.67;65.00;100823.09;10332693;28;20057;-60
2023/10/09 08:50:43;;;;;;;9.70;3.38;;;;;;;18.95;64.24;100800.94;10331779;28;20520;-60
2023/10/09 08:55:46;;;;;;;23.48;3.55;;;;;;;19.25;63.84;100795.66;10335664;28;20099;-60
2023/10/09 09:00:48;;;;;;;11.80;3.00;;;;;;;19.55;63.43;100801.28;10333218;28;20046;-60
2023/10/09 09:06:02;;;;;;;8.95;3.47;;;;;;;19.54;63.38;100809.69;10330506;28;20731;-61
2023/10/09 09:11:23;;;;;;;10.05;3.03;;;;;;;19.52;62.99;100823.53;10330996;28;20049;-60
2023/10/09 09:16:31;;;;;;;20.38;3.72;;;;;;;19.44;63.31;100809.38;10331680;28;20045;-59
2023/10/09 09:21:38;;;;;;;11.05;3.65;;;;;;;19.41;63.22;100807.91;10329192;28;20185;-59
2023/10/09 09:26:46;;;;;;;13.80;3.40;;;;;;;19.46;63.05;100796.34;10332743;28;20050;-66
2023/10/09 09:31:57;;;;;;;10.80;2.78;;;;;;;19.47;62.89;100828.00;10334105;28;20069;-61
2023/10/09 09:36:59;;;;;;;10.05;3.80;;;;;;;19.33;63.18;100819.09;10331223;28;20507;-58
2023/10/09 09:42:07;;;;;;;10.88;3.20;;;;;;;19.38;63.00;100800.19;10324797;28;20069;-58
2023/10/09 09:47:13;;;;;;;13.48;3.42;;;;;;;19.54;62.87;100799.59;10323846;28;20497;-59
2023/10/09 09:52:18;;;;;;;9.63;3.17;;;;;;;19.70;62.37;100814.56;10324707;28;20053;-59
2023/10/09 09:57:26;;;;;;;16.33;3.28;;;;;;;19.81;62.00;100837.56;10326356;28;20048;-60
2023/10/09 10:02:33;;;;;;;10.80;3.25;;;;;;;19.55;62.50;100852.25;10328494;28;20054;-58
2023/10/09 10:07:43;;;;;;;12.90;3.60;;;;;;;19.44;63.22;100855.72;10340972;28;20046;-63
2023/10/09 10:12:47;;;;;;;11.65;4.68;;;;;;;19.55;63.15;100819.53;10335327;28;20038;-58
2023/10/09 10:18:07;;;;;;;17.65;3.58;;;;;;;19.63;62.48;100816.53;10338573;28;20057;-59
2023/10/09 10:23:17;;;;;;;12.57;2.90;;;;;;;19.74;62.35;100823.16;10340918;28;20516;-58
2023/10/09 10:29:05;;;;;;;10.57;2.78;;;;;;;19.77;62.57;100837.19;10332474;28;20136;-58
2023/10/09 10:33:56;;;;;;;14.40;3.03;;;;;;;19.77;62.50;100779.06;10337268;28;20125;-58
2023/10/09 10:39:08;;;;;;;11.27;3.08;;;;;;;19.92;62.48;100831.34;10334384;28;20046;-58
2023/10/09 10:49:44;;;;;;;10.35;3.25;;;;;;;20.18;62.12;100791.19;10320735;28;20152;-58
2023/10/09 10:54:46;;;;;;;8.70;3.25;;;;;;;20.42;61.44;100756.66;10338117;28;20045;-58
2023/10/09 10:59:49;;;;;;;11.45;3.15;;;;;;;20.52;61.65;100756.09;10333753;28;20125;-58
2023/10/09 11:05:13;;;;;;;18.85;3.55;;;;;;;20.59;61.44;100743.19;10336045;28;20104;-58
2023/10/09 11:10:27;;;;;;;14.00;3.65;;;;;;;20.70;60.90;100741.56;10329538;28;20073;-58
2023/10/09 11:15:44;;;;;;;13.75;3.28;;;;;;;20.82;60.84;100723.31;10332304;28;20050;-58
2023/10/09 11:20:56;;;;;;;14.25;2.75;;;;;;;20.85;60.81;100727.44;10336852;28;20050;-58
2023/10/09 11:26:21;;;;;;;9.45;2.80;;;;;;;21.06;60.36;100735.09;10337480;28;20049;-58
2023/10/09 11:31:19;;;;;;;7.05;2.47;;;;;;;21.20;60.36;100722.84;10340846;28;20070;-58
2023/10/09 11:36:31;;;;;;;10.50;2.40;;;;;;;21.49;59.75;100708.50;10338412;28;20509;-58
2023/10/09 11:41:34;;;;;;;8.18;2.30;;;;;;;21.69;58.83;100698.00;10341928;28;20049;-59
2023/10/09 11:46:58;;;;;;;8.02;2.60;;;;;;;21.79;58.59;100680.97;10331879;28;20046;-58
2023/10/09 11:57:10;;;;;;;6.13;2.20;;;;;;;22.01;58.27;100675.63;10329231;28;20096;-58
2023/10/09 12:02:13;;;;;;;13.70;2.17;;;;;;;22.11;57.89;100659.41;10348492;28;20061;-59
2023/10/09 12:07:15;;;;;;;8.27;2.42;;;;;;;22.17;57.53;100658.41;10336973;28;20049;-58
2023/10/09 12:12:18;;;;;;;8.20;2.70;;;;;;;22.22;57.56;100644.00;10339414;28;20037;-59
2023/10/09 12:17:24;;;;;;;13.23;2.50;;;;;;;22.20;57.55;100653.56;10335990;28;20133;-59
2023/10/09 12:22:27;;;;;;;8.77;2.47;;;;;;;22.30;57.67;100654.59;10341349;28;20050;-59
2023/10/09 12:27:29;;;;;;;9.27;2.50;;;;;;;22.40;56.93;100650.38;10335201;28;20052;-59
2023/10/09 12:32:36;;;;;;;9.00;2.83;;;;;;;22.50;56.84;100658.78;10336943;28;20056;-59
2023/10/09 12:37:37;;;;;;;;;;;;;;;22.64;56.87;100648.31;10332061;28;20046;-59
2023/10/09 12:42:40;;;;;;;5.95;2.25;;;;;;;22.80;56.22;100652.97;10333395;28;19926;-59
2023/10/09 12:47:42;;;;;;;10.32;2.53;;;;;;;22.85;56.01;100661.28;10334656;28;20046;-58
2023/10/09 12:52:43;;;;;;;6.97;1.90;;;;;;;22.78;55.56;100655.94;10316124;28;20417;-58
2023/10/09 12:57:48;;;;;;;6.22;1.75;;;;;;;22.92;54.87;100656.44;10331959;28;20050;-59
2023/10/09 13:02:49;;;;;;;8.25;1.75;;;;;;;22.92;54.47;100661.09;10334178;28;20075;-59
2023/10/09 13:07:51;;;;;;;6.50;1.80;;;;;;;22.97;53.41;100662.00;10332664;28;20053;-58
2023/10/09 13:12:55;;;;;;;4.35;1.83;;;;;;;22.93;52.41;100660.84;10332171;28;20625;-58
2023/10/09 13:17:57;;;;;;;5.57;1.83;;;;;;;23.08;51.85;100654.78;10329893;28;20050;-58
2023/10/09 13:22:58;;;;;;;10.27;2.28;;;;;;;23.00;51.23;100655.19;10336056;28;20050;-59
2023/10/09 13:28:03;;;;;;;6.75;1.67;;;;;;;23.07;51.20;100647.66;10331333;28;20112;-58
2023/10/09 13:33:05;;;;;;;6.72;2.42;;;;;;;23.09;50.85;100650.16;10335043;28;20046;-58
2023/10/09 13:38:09;;;;;;;5.07;1.80;;;;;;;23.07;51.25;100628.44;10334762;28;20101;-59
2023/10/09 13:43:16;;;;;;;5.38;1.67;;;;;;;23.01;50.95;100645.06;10346566;28;20050;-57
2023/10/09 13:48:20;;;;;;;7.95;2.00;;;;;;;23.04;50.98;100639.09;10345906;28;20049;-57
2023/10/09 13:53:26;;;;;;;5.03;1.55;;;;;;;23.08;50.81;100634.75;10344280;28;20137;-56
2023/10/09 13:58:28;;;;;;;6.03;2.10;;;;;;;23.12;50.71;100647.72;10345002;28;20057;-56
2023/10/09 14:03:29;;;;;;;7.50;1.73;;;;;;;23.12;50.62;100645.00;10348107;28;20073;-57
2023/10/09 14:08:31;;;;;;;8.00;2.22;;;;;;;23.23;50.65;100639.66;10340047;28;20523;-56
2023/10/09 14:13:33;;;;;;;5.05;2.10;;;;;;;23.24;50.63;100647.59;10346998;28;20064;-57
2023/10/09 14:18:34;;;;;;;6.18;2.13;;;;;;;23.25;50.59;100645.72;10340481;28;20054;-56
2023/10/09 14:23:36;;;;;;;4.78;1.88;;;;;;;23.25;50.51;100642.97;10340562;28;20088;-57
2023/10/09 14:28:37;;;;;;;6.22;1.58;;;;;;;23.14;50.52;100653.78;10345833;28;20057;-56
2023/10/09 14:33:40;;;;;;;7.10;2.40;;;;;;;23.24;50.62;100657.75;10347095;28;20286;-57
2023/10/09 14:38:42;;;;;;;6.05;1.52;;;;;;;23.14;50.52;100656.53;10341761;28;20050;-56
2023/10/09 14:43:43;;;;;;;6.68;2.45;;;;;;;23.18;50.08;100654.09;10344367;28;20120;-55
2023/10/09 14:48:45;;;;;;;5.28;2.25;;;;;;;23.14;49.84;100667.50;10323008;28;20050;-57
2023/10/09 14:53:49;;;;;;;5.30;1.60;;;;;;;23.20;49.38;100667.56;10338809;28;20080;-56
2023/10/09 14:58:51;;;;;;;7.80;2.20;;;;;;;23.34;48.89;100668.84;10345708;28;20546;-57
2023/10/09 15:03:55;;;;;;;7.30;2.10;;;;;;;23.40;49.11;100656.91;10343524;28;20065;-59
2023/10/09 15:08:58;;;;;;;3.75;1.45;;;;;;;23.46;49.42;100652.28;10347072;28;20038;-59
2023/10/09 15:14:00;;;;;;;7.03;2.03;;;;;;;23.45;50.11;100661.63;10328718;28;20058;-58
2023/10/09 15:19:02;;;;;;;8.07;3.70;;;;;;;23.41;50.46;100674.19;10331104;28;20041;-59
2023/10/09 15:24:05;;;;;;;7.68;2.92;;;;;;;23.35;50.88;100663.13;10336808;28;20064;-59
2023/10/09 15:29:06;;;;;;;7.38;2.75;;;;;;;23.28;50.77;100646.03;10330563;28;20085;-60
2023/10/09 15:34:08;;;;;;;7.68;2.30;;;;;;;23.25;51.37;100646.53;10341354;28;20065;-59
2023/10/09 15:39:11;;;;;;;5.88;1.80;;;;;;;23.30;51.72;100654.00;10319326;28;20149;-59
2023/10/09 15:44:13;;;;;;;7.68;2.25;;;;;;;23.26;51.91;100644.59;10334904;28;20045;-59
2023/10/09 15:49:15;;;;;;;6.95;2.55;;;;;;;23.23;51.65;100642.38;10332263;28;20074;-58
2023/10/09 15:54:19;;;;;;;6.90;3.08;;;;;;;23.11;52.61;100645.25;10336040;28;20042;-59
2023/10/09 15:59:20;;;;;;;6.10;2.30;;;;;;;22.97;53.06;100653.78;10329709;28;20081;-60
2023/10/09 16:04:22;;;;;;;6.40;2.60;;;;;;;22.75;53.85;100645.50;10333269;28;20047;-59
2023/10/09 16:09:25;;;;;;;8.73;3.22;;;;;;;22.41;54.60;100635.59;10337027;28;20064;-60
2023/10/09 16:14:27;;;;;;;7.57;2.63;;;;;;;22.33;54.62;100648.63;10338726;28;20046;-59
2023/10/09 16:19:32;;;;;;;8.60;2.75;;;;;;;22.23;54.63;100650.31;10333109;28;20130;-59
2023/10/09 16:24:35;;;;;;;8.45;2.92;;;;;;;22.12;55.21;100655.59;10331034;28;20092;-59
2023/10/09 16:29:40;;;;;;;7.93;2.87;;;;;;;22.09;55.30;100653.34;10333879;28;21105;-59
2023/10/09 16:34:44;;;;;;;8.35;3.47;;;;;;;22.01;55.68;100677.56;10333327;28;20057;-59
2023/10/09 16:39:45;;;;;;;7.38;2.97;;;;;;;21.85;56.27;100671.78;10332569;28;20397;-58
2023/10/09 16:44:46;;;;;;;7.68;3.40;;;;;;;21.68;56.73;100679.06;10330817;28;20050;-59
2023/10/09 16:49:51;;;;;;;5.80;2.78;;;;;;;21.47;57.06;100675.09;10329552;28;20049;-59
2023/10/09 16:54:53;;;;;;;8.55;2.75;;;;;;;21.55;56.45;100661.84;10350784;28;20508;-58
2023/10/09 16:59:55;;;;;;;8.50;2.95;;;;;;;21.67;55.80;100685.63;10387803;28;20666;-57
2023/10/09 17:04:56;;;;;;;8.85;3.17;;;;;;;21.67;56.18;100688.38;10388861;28;20049;-57
2023/10/09 17:09:58;;;;;;;12.45;4.00;;;;;;;21.53;56.17;100683.16;10385404;28;20045;-57
2023/10/09 17:15:00;;;;;;;9.60;3.65;;;;;;;21.46;56.50;100687.09;10382034;28;20049;-57
2023/10/09 17:20:01;;;;;;;8.50;2.95;;;;;;;21.38;56.34;100688.25;10382478;28;20053;-56
2023/10/09 17:25:04;;;;;;;9.07;3.03;;;;;;;21.37;56.29;100681.97;10342822;28;20060;-55
2023/10/09 17:30:08;;;;;;;6.85;2.33;;;;;;;21.35;55.33;100686.84;10330036;28;20131;-56
2023/10/09 17:35:10;;;;;;;9.82;2.70;;;;;;;21.42;54.93;100683.97;10339625;28;20054;-55
2023/10/09 17:40:18;;;;;;;7.55;2.08;;;;;;;21.38;54.71;100693.72;10337840;28;20050;-55
2023/10/09 17:45:22;;;;;;;6.97;2.55;;;;;;;21.54;54.11;100703.97;10333171;28;20031;-56
2023/10/09 17:50:23;;;;;;;4.57;1.42;;;;;;;21.63;53.66;100700.88;10330657;28;20108;-54
2023/10/09 17:55:25;;;;;;;8.82;2.30;;;;;;;21.59;53.89;100686.84;10335777;28;20488;-55
2023/10/09 18:00:28;;;;;;;6.72;1.95;;;;;;;21.67;53.09;100691.09;10337932;28;20051;-56
2023/10/09 18:05:30;;;;;;;5.32;2.17;;;;;;;21.83;52.51;100689.53;10335372;28;20049;-55
2023/10/09 18:10:35;;;;;;;4.05;2.15;;;;;;;21.84;52.32;100699.38;10331555;28;20480;-56
2023/10/09 18:15:37;;;;;;;11.67;1.83;;;;;;;21.86;51.79;100695.34;10331970;28;20108;-56
2023/10/09 18:20:45;;;;;;;4.38;1.92;;;;;;;22.02;51.06;100707.44;10332087;28;20519;-55
2023/10/09 18:25:49;;;;;;;6.32;1.67;;;;;;;22.12;50.16;100712.28;10340149;28;20034;-59
2023/10/09 18:30:52;;;;;;;10.07;1.90;;;;;;;22.28;49.41;100719.75;10342723;28;20055;-57
2023/10/09 18:35:53;;;;;;;3.90;1.73;;;;;;;22.37;49.51;100723.75;10338180;28;20129;-59
2023/10/09 18:40:56;;;;;;;5.95;1.55;;;;;;;22.34;49.36;100716.00;10343513;28;20048;-57
2023/10/09 18:45:57;;;;;;;5.95;2.38;;;;;;;22.20;50.18;100716.53;10336808;28;20046;-56
2023/10/09 18:50:59;;;;;;;5.88;2.20;;;;;;;22.05;50.69;100728.84;10340461;28;20048;-56
2023/10/09 18:56:02;;;;;;;7.90;2.55;;;;;;;21.90;51.19;100739.47;10340321;28;20123;-56
2023/10/09 19:01:06;;;;;;;8.38;2.88;;;;;;;21.71;51.67;100728.69;10336450;28;20042;-57
2023/10/09 19:06:09;;;;;;;10.07;4.57;;;;;;;21.52;52.61;100725.25;10336912;28;20050;-56
2023/10/09 19:11:12;;;;;;;8.88;4.18;;;;;;;21.36;53.00;100737.72;10329782;28;20053;-56
2023/10/09 19:16:14;;;;;;;7.60;3.20;;;;;;;21.22;53.68;100739.03;10342245;28;20072;-56
2023/10/09 19:21:16;;;;;;;7.13;3.10;;;;;;;21.03;54.00;100735.59;10337660;28;20037;-57
2023/10/09 19:26:18;;;;;;;8.52;3.83;;;;;;;20.88;54.24;100760.63;10335272;28;20038;-55
2023/10/09 19:31:21;;;;;;;8.32;2.97;;;;;;;20.75;54.64;100749.88;10336182;28;20101;-57
2023/10/09 19:36:25;;;;;;;6.13;2.83;;;;;;;20.43;56.14;100755.56;10328673;28;20053;-56
2023/10/09 19:41:30;;;;;;;5.82;2.30;;;;;;;20.31;55.69;100754.69;10339394;28;20129;-57
2023/10/09 19:46:37;;;;;;;6.22;1.88;;;;;;;20.45;54.73;100753.44;10332538;28;20077;-56
2023/10/09 19:51:40;;;;;;;7.65;1.85;;;;;;;20.78;52.85;100758.44;10333382;28;20132;-56
2023/10/09 19:56:42;;;;;;;5.72;1.70;;;;;;;20.98;52.37;100751.84;10332120;28;20042;-56
2023/10/09 20:01:44;;;;;;;8.02;1.25;;;;;;;21.08;52.17;100760.28;10329097;28;20092;-58
2023/10/09 20:06:45;;;;;;;4.40;1.95;;;;;;;21.16;51.93;100770.88;10327493;28;20429;-56
2023/10/09 20:11:47;;;;;;;7.03;2.05;;;;;;;21.22;51.40;100769.09;10333338;28;20046;-56
2023/10/09 20:16:48;;;;;;;3.55;1.35;;;;;;;21.22;51.60;100769.09;10334629;28;20049;-57
2023/10/09 20:21:52;;;;;;;6.70;2.10;;;;;;;21.25;51.22;100765.06;10337946;28;20468;-56
2023/10/09 20:26:55;;;;;;;5.13;1.73;;;;;;;21.23;51.58;100776.25;10329675;28;20042;-58
2023/10/09 20:31:56;;;;;;;7.07;1.55;;;;;;;21.22;51.18;100788.25;10332557;28;20042;-56
2023/10/09 20:37:02;;;;;;;8.23;1.65;;;;;;;21.12;51.68;100794.28;10334745;28;20046;-57
2023/10/09 20:42:06;;;;;;;8.35;1.70;;;;;;;21.10;51.38;100793.69;10337093;28;20037;-58
2023/10/09 20:47:10;;;;;;;6.03;2.03;;;;;;;21.02;52.00;100798.69;10338234;28;20069;-56
2023/10/09 20:52:12;;;;;;;10.38;2.03;;;;;;;20.98;51.57;100803.78;10330581;28;20073;-56
2023/10/09 20:57:14;;;;;;;4.47;2.00;;;;;;;20.88;52.13;100796.16;10335107;28;20514;-57
2023/10/09 21:02:15;;;;;;;4.28;2.30;;;;;;;20.62;52.67;100805.56;10335932;28;20139;-57
2023/10/09 21:07:17;;;;;;;4.60;1.70;;;;;;;20.41;53.69;100820.50;10330686;28;20057;-56
2023/10/09 21:12:19;;;;;;;9.52;2.08;;;;;;;20.28;53.57;100816.06;10330713;28;20053;-59
2023/10/09 21:17:20;;;;;;;5.05;2.08;;;;;;;20.20;53.86;100816.34;10330480;28;20097;-56
2023/10/09 21:22:22;;;;;;;5.07;2.60;;;;;;;20.20;53.90;100813.63;10333773;28;20042;-58
2023/10/09 21:27:23;;;;;;;5.40;2.55;;;;;;;20.13;53.75;100812.88;10331779;28;20061;-56
2023/10/09 21:32:27;;;;;;;7.03;2.67;;;;;;;20.01;54.19;100816.38;10336482;28;20053;-56
2023/10/09 21:37:28;;;;;;;11.63;2.95;;;;;;;19.91;54.09;100824.25;10329342;28;20050;-56
2023/10/09 21:42:30;;;;;;;8.95;2.83;;;;;;;19.79;54.55;100820.59;10330798;28;20404;-56
2023/10/09 21:47:31;;;;;;;10.88;2.58;;;;;;;19.72;54.59;100814.38;10331221;28;20509;-57
2023/10/09 21:52:33;;;;;;;8.90;2.85;;;;;;;19.60;55.12;100815.06;10335305;28;20050;-58
2023/10/09 21:57:35;;;;;;;9.50;3.53;;;;;;;19.51;55.68;100821.03;10332716;28;20057;-58
2023/10/09 22:02:37;;;;;;;6.50;3.38;;;;;;;19.44;55.78;100829.28;10340408;28;20048;-56
2023/10/09 22:07:42;;;;;;;5.82;2.95;;;;;;;19.41;56.21;100833.28;10343978;28;20053;-57
2023/10/09 22:12:47;;;;;;;7.22;3.10;;;;;;;19.40;56.15;100817.97;10343957;28;20046;-57
2023/10/09 22:17:48;;;;;;;6.53;2.83;;;;;;;19.32;56.70;100823.72;10342197;28;20053;-57
2023/10/09 22:22:57;;;;;;;14.02;3.92;;;;;;;19.28;57.08;100814.31;10332536;28;20065;-58
2023/10/09 22:27:59;;;;;;;8.20;3.60;;;;;;;19.28;56.85;100813.47;10339935;28;20519;-58
2023/10/09 22:33:05;;;;;;;9.50;3.45;;;;;;;19.26;57.25;100812.88;10338894;28;20501;-58
2023/10/09 22:38:11;;;;;;;12.83;3.43;;;;;;;19.22;57.28;100807.84;10336215;28;20143;-58
2023/10/09 22:43:14;;;;;;;;;;;;;;;19.12;57.59;100815.69;10339355;28;20062;-58
2023/10/09 22:48:16;;;;;;;8.07;4.47;;;;;;;18.93;58.52;100817.50;10337788;28;19926;-58
2023/10/09 22:53:32;;;;;;;9.13;3.20;;;;;;;18.87;58.87;100807.47;10336359;28;20064;-57
2023/10/09 22:58:38;;;;;;;10.15;3.78;;;;;;;18.91;58.53;100810.59;10339649;28;20409;-58
2023/10/09 23:03:40;;;;;;;7.97;4.53;;;;;;;18.78;58.93;100825.13;10335926;28;20046;-58
2023/10/09 23:08:42;;;;;;;9.13;4.20;;;;;;;18.73;58.96;100817.59;10333678;28;20506;-57
2023/10/09 23:13:53;;;;;;;11.68;3.65;;;;;;;18.58;59.36;100822.47;10342441;28;20046;-57
2023/10/09 23:19:07;;;;;;;11.10;3.65;;;;;;;18.42;59.68;100830.13;10336963;28;20410;-55
2023/10/09 23:24:08;;;;;;;9.52;3.50;;;;;;;18.33;59.94;100819.69;10333284;28;20382;-58
2023/10/09 23:29:10;;;;;;;8.02;4.20;;;;;;;18.23;60.12;100831.03;10339937;28;20050;-57
2023/10/09 23:34:19;;;;;;;10.45;3.63;;;;;;;18.08;60.50;100828.56;10339338;28;20405;-59
2023/10/09 23:44:40;;;;;;;11.10;4.10;;;;;;;18.07;60.49;100835.06;10336508;28;20039;-55
2023/10/09 23:49:43;;;;;;;9.57;3.65;;;;;;;17.97;60.70;100834.63;10335693;28;20046;-55
2023/10/09 23:54:48;;;;;;;9.40;3.58;;;;;;;17.83;61.12;100823.81;10337410;28;20046;-56
2023/10/09 23:59:54;;;;;;;8.20;3.58;;;;;;;17.76;61.28;100839.25;10335049;28;20042;-56
